WetterOnline ( https://www.wetteronline.ch )

Wetter aktuell Waldkirch

Aktuelles Wetter: Freiburg/Flugplatz (236m)

6-stündlich | Neueste Meldungen
Ortszeit Temperatur Wetter
Fr, 21.06. 8:00 20.4° C bewölkt
Fr, 21.06. 2:00 18.6° C wolkig
Do, 20.06. 20:00 24.5° C bedeckt
Do, 20.06. 14:00 21.6° C Regen
Do, 20.06. 8:00 16.1° C bedeckt
Do, 20.06. 2:00 16.8° C wolkig
Mi, 19.06. 20:00 24.1° C leicht bewölkt
Mi, 19.06. 14:00 26.5° C wolkenlos
Ortszeit Temperatur Wetter
Fr, 21.06. 9:00 20.9° C leichter Regen
Fr, 21.06. 8:50 20.9° C leichter Regen
Fr, 21.06. 8:40 21.4° C leichter Regen
Fr, 21.06. 8:30 21.6° C leichter Regen
Fr, 21.06. 8:20 21.6° C leichter Regen
Fr, 21.06. 8:10 21.7° C leichter Regen
Fr, 21.06. 8:00 20.4° C bewölkt
Fr, 21.06. 7:30 18.6° C leichter Regen
Fr, 21.06. 7:00 17.7° C leichter Regen
Fr, 21.06. 6:30 17.6° C wolkig
Fr, 21.06. 6:00 17.5° C bedeckt
Ortszeit Relative Feuchte Sichtweite
Fr, 21.06. 8:00 72% 35 km
Fr, 21.06. 2:00 92% 30 km
Do, 20.06. 20:00 72% 30 km
Do, 20.06. 14:00 79% 10 km
Do, 20.06. 8:00 91% 30 km
Do, 20.06. 2:00 90% 50 km
Mi, 19.06. 20:00 65% 55 km
Mi, 19.06. 14:00 58% >70 km
Ortszeit Relative Feuchte Sichtweite
Fr, 21.06. 9:00 65% 19 km
Fr, 21.06. 8:50 65% -
Fr, 21.06. 8:40 63% -
Fr, 21.06. 8:30 62% 30 km
Fr, 21.06. 8:20 62% -
Fr, 21.06. 8:10 61% -
Fr, 21.06. 8:00 72% 35 km
Fr, 21.06. 7:30 86% 30 km
Fr, 21.06. 7:00 89% 20 km
Fr, 21.06. 6:30 88% 30 km
Fr, 21.06. 6:00 85% 40 km
Ortszeit Niederschlagsmenge Niederschlagsart
Fr, 21.06. 8:00 0.8 l/m2 in 12 Std. Regen
Fr, 21.06. 2:00 0.0 l/m2 in 6 Std. -
Do, 20.06. 20:00 0.5 l/m2 in 12 Std. Regen
Do, 20.06. 14:00 0.2 l/m2 in 6 Std. Regen
Do, 20.06. 8:00 0.0 l/m2 in 12 Std. -
Do, 20.06. 2:00 0.0 l/m2 in 6 Std. -
Mi, 19.06. 20:00 0.0 l/m2 in 12 Std. -
Mi, 19.06. 14:00 0.0 l/m2 in 6 Std. -
Ortszeit Niederschlagsmenge Niederschlagsart
Fr, 21.06. 9:00 0.1 l/m2 in 1 Std. Regen
Fr, 21.06. 8:50 keine Meldung -
Fr, 21.06. 8:40 keine Meldung -
Fr, 21.06. 8:30 <0.05 l/m2 in 30 Min -
Fr, 21.06. 8:20 keine Meldung -
Fr, 21.06. 8:10 keine Meldung -
Fr, 21.06. 8:00 0.1 l/m2 in 1 Std. Regen
Fr, 21.06. 7:30 0.1 l/m2 in 30 Min -
Fr, 21.06. 7:00 0.7 l/m2 in 1 Std. Regen
Fr, 21.06. 6:30 0.0 l/m2 in 30 Min -
Fr, 21.06. 6:00 0.0 l/m2 in 1 Std. -
Ortszeit Stärke Spitze Richtung
km/h Bft. km/h Grad Sektor
Fr, 21.06. 8:00 11 2 25 180° S
Fr, 21.06. 2:00 4 1 14 340° N
Do, 20.06. 20:00 7 2 32 240° SW
Do, 20.06. 14:00 4 1 14 20° N
Do, 20.06. 8:00 4 1 14 350° N
Do, 20.06. 2:00 6 1 26 290° W
Mi, 19.06. 20:00 15 3 30 350° N
Mi, 19.06. 14:00 6 1 17 50° NO
Ortszeit Stärke Spitze Richtung
km/h Bft. km/h Grad Sektor
Fr, 21.06. 9:00 14 3 40 200° S
Fr, 21.06. 8:50 14 3 - 200° S
Fr, 21.06. 8:40 17 3 - 200° S
Fr, 21.06. 8:30 25 4 40 210° SW
Fr, 21.06. 8:20 25 4 - 210° SW
Fr, 21.06. 8:10 14 3 - 230° SW
Fr, 21.06. 8:00 11 2 25 180° S
Fr, 21.06. 7:30 7 2 18 120° SO
Fr, 21.06. 7:00 11 2 25 180° S
Fr, 21.06. 6:30 4 1 14 270° W
Fr, 21.06. 6:00 6 1 13 110° O
Ortszeit Untergrenze Bedeckung Gattung
total tief tief mittel hoch
Fr, 21.06. 8:00 2100 m 8/8 4/8 - - -
Fr, 21.06. 2:00 7800 m 7/8 0/8 - - -
Do, 20.06. 20:00 4200 m 8/8 8/8 - - -
Do, 20.06. 14:00 2700 m 7/8 6/8 - - -
Do, 20.06. 8:00 180 m 8/8 8/8 - - -
Do, 20.06. 2:00 8400 m 8/8 0/8 - - -
Mi, 19.06. 20:00 3600 m 2/8 2/8 - - -
Mi, 19.06. 14:00 - 0/8 0/8 - - -
Ortszeit Bedeckungsgrad in Achtel und Wolkenuntergrenze
Fr, 21.06. 9:00 1(2100m) 8(3000m)
Fr, 21.06. 8:50 1(2100m) 8(3000m)
Fr, 21.06. 8:40 8
Fr, 21.06. 8:30 1(2400m) 7(3000m)
Fr, 21.06. 8:20 1(2400m) 7(3000m)
Fr, 21.06. 8:10 8
Fr, 21.06. 8:00 4(2100m) 8(3000m)
Fr, 21.06. 7:30 1(2100m) 3(2700m) 8(3300m)
Fr, 21.06. 7:00 7(3000m) 7(3900m)
Fr, 21.06. 6:30 2(2700m) 8(4800m) 8(6000m)
Fr, 21.06. 6:00 4(4500m) 8(6000m) 8(7200m)
Ortszeit Luftdruck NN (hPa) Tendenz (hPa in 3 Std.)
Fr, 21.06. 8:00 1014 + 0,4
Fr, 21.06. 2:00 1016 - 0,3
Do, 20.06. 20:00 1016 - 0,2
Do, 20.06. 14:00 1018 + 0,1
Do, 20.06. 8:00 1019 + 1,5
Do, 20.06. 2:00 1018 + 0,9
Mi, 19.06. 20:00 1016 + 1,5
Mi, 19.06. 14:00 1014 + 0,9
Ortszeit Luftdruck NN (hPa) Tendenz (hPa in 3 Std.)
Fr, 21.06. 9:00 1015 + 1,4
Fr, 21.06. 8:50 1015 keine Meldung
Fr, 21.06. 8:40 1015 keine Meldung
Fr, 21.06. 8:30 1015 + 1,1
Fr, 21.06. 8:20 1015 keine Meldung
Fr, 21.06. 8:10 1015 keine Meldung
Fr, 21.06. 8:00 1014 + 0,4
Fr, 21.06. 7:30 1015 + 0,2
Fr, 21.06. 7:00 1016 + 1,5
Fr, 21.06. 6:30 1015 + 0,2
Fr, 21.06. 6:00 1014 - 1,0
Ortszeit Schneehöhe (cm)
Fr, 21.06. 8:00 0
Fr, 21.06. 2:00 0
Do, 20.06. 20:00 0
Do, 20.06. 14:00 0
Do, 20.06. 8:00 0
Do, 20.06. 2:00 0
Mi, 19.06. 20:00 0
Mi, 19.06. 14:00 0
Ortszeit Schneehöhe (cm)
Fr, 21.06. 9:00 0
Fr, 21.06. 8:50 0
Fr, 21.06. 8:40 -
Fr, 21.06. 8:30 0
Fr, 21.06. 8:20 0
Fr, 21.06. 8:10 -
Fr, 21.06. 8:00 0
Fr, 21.06. 7:30 0
Fr, 21.06. 7:00 0
Fr, 21.06. 6:30 0
Fr, 21.06. 6:00 0
Link zu dieser Seite / Seite empfehlen

Das Wetter in ...